sensor_id;sensor_type;location;lat;lon;timestamp;pressure;altitude;pressure_sealevel;temperature;humidity
74868;BME280;63419;42.262;12.210;2023-09-30T00:02:19;97951.47;;;19.30;nan
74868;BME280;63419;42.262;12.210;2023-09-30T00:04:44;97947.38;;;19.55;nan
74868;BME280;63419;42.262;12.210;2023-09-30T00:07:10;97937.16;;;19.62;nan
74868;BME280;63419;42.262;12.210;2023-09-30T00:09:36;97944.88;;;19.63;nan
74868;BME280;63419;42.262;12.210;2023-09-30T00:12:03;97937.91;;;19.82;nan
74868;BME280;63419;42.262;12.210;2023-09-30T00:14:29;97938.53;;;19.93;nan
74868;BME280;63419;42.262;12.210;2023-09-30T00:16:55;97943.16;;;19.82;nan
74868;BME280;63419;42.262;12.210;2023-09-30T00:19:21;97937.09;;;19.71;nan
74868;BME280;63419;42.262;12.210;2023-09-30T00:21:48;97945.50;;;19.75;nan
74868;BME280;63419;42.262;12.210;2023-09-30T00:24:14;97948.63;;;19.88;nan
74868;BME280;63419;42.262;12.210;2023-09-30T00:26:40;97944.06;;;19.90;nan
74868;BME280;63419;42.262;12.210;2023-09-30T00:29:06;97949.19;;;19.07;nan
74868;BME280;63419;42.262;12.210;2023-09-30T00:31:32;97954.19;;;18.42;nan
74868;BME280;63419;42.262;12.210;2023-09-30T00:33:58;97946.44;;;18.70;nan
74868;BME280;63419;42.262;12.210;2023-09-30T00:36:24;97948.81;;;18.73;nan
74868;BME280;63419;42.262;12.210;2023-09-30T00:38:49;97942.06;;;18.70;nan
74868;BME280;63419;42.262;12.210;2023-09-30T00:41:15;97942.88;;;18.80;nan
74868;BME280;63419;42.262;12.210;2023-09-30T00:43:41;97937.41;;;18.93;nan
74868;BME280;63419;42.262;12.210;2023-09-30T00:46:26;97938.63;;;18.79;nan
74868;BME280;63419;42.262;12.210;2023-09-30T00:48:53;97933.75;;;19.14;nan
74868;BME280;63419;42.262;12.210;2023-09-30T00:51:22;97926.75;;;19.52;nan
74868;BME280;63419;42.262;12.210;2023-09-30T00:53:51;97927.59;;;19.43;nan
74868;BME280;63419;42.262;12.210;2023-09-30T00:56:19;97924.41;;;19.11;nan
74868;BME280;63419;42.262;12.210;2023-09-30T00:58:47;97933.19;;;19.20;nan
74868;BME280;63419;42.262;12.210;2023-09-30T01:01:25;97925.91;;;19.51;nan
74868;BME280;63419;42.262;12.210;2023-09-30T01:03:52;97926.53;;;19.91;nan
74868;BME280;63419;42.262;12.210;2023-09-30T01:06:18;97930.09;;;20.00;nan
74868;BME280;63419;42.262;12.210;2023-09-30T01:08:44;97935.75;;;18.53;nan
74868;BME280;63419;42.262;12.210;2023-09-30T01:11:10;97940.09;;;16.81;nan
74868;BME280;63419;42.262;12.210;2023-09-30T01:13:37;97929.47;;;17.15;nan
74868;BME280;63419;42.262;12.210;2023-09-30T01:16:04;97936.03;;;16.88;nan
74868;BME280;63419;42.262;12.210;2023-09-30T01:18:32;97933.44;;;16.67;nan
74868;BME280;63419;42.262;12.210;2023-09-30T01:21:02;97928.72;;;15.96;nan
74868;BME280;63419;42.262;12.210;2023-09-30T01:23:33;97929.75;;;16.05;nan
74868;BME280;63419;42.262;12.210;2023-09-30T01:26:10;97930.69;;;16.36;nan
74868;BME280;63419;42.262;12.210;2023-09-30T01:28:38;97927.66;;;16.63;nan
74868;BME280;63419;42.262;12.210;2023-09-30T01:31:05;97928.66;;;16.93;nan
74868;BME280;63419;42.262;12.210;2023-09-30T01:33:32;97922.63;;;17.13;nan
74868;BME280;63419;42.262;12.210;2023-09-30T01:35:59;97929.06;;;17.09;nan
74868;BME280;63419;42.262;12.210;2023-09-30T01:38:25;97921.72;;;17.24;nan
74868;BME280;63419;42.262;12.210;2023-09-30T01:40:52;97914.44;;;17.28;nan
74868;BME280;63419;42.262;12.210;2023-09-30T01:43:19;97919.59;;;17.18;nan
74868;BME280;63419;42.262;12.210;2023-09-30T01:45:45;97915.78;;;17.53;nan
74868;BME280;63419;42.262;12.210;2023-09-30T01:48:11;97910.31;;;17.66;nan
74868;BME280;63419;42.262;12.210;2023-09-30T01:50:40;97915.34;;;17.88;nan
74868;BME280;63419;42.262;12.210;2023-09-30T01:53:07;97903.81;;;17.91;nan
74868;BME280;63419;42.262;12.210;2023-09-30T01:55:34;97911.25;;;17.96;nan
74868;BME280;63419;42.262;12.210;2023-09-30T01:58:00;97907.13;;;18.03;nan
74868;BME280;63419;42.262;12.210;2023-09-30T02:00:26;97919.94;;;18.06;nan
74868;BME280;63419;42.262;12.210;2023-09-30T02:02:57;97919.47;;;17.91;nan
74868;BME280;63419;42.262;12.210;2023-09-30T02:05:23;97921.56;;;17.57;nan
74868;BME280;63419;42.262;12.210;2023-09-30T02:07:50;97921.00;;;17.63;nan
74868;BME280;63419;42.262;12.210;2023-09-30T02:10:17;97920.84;;;17.85;nan
74868;BME280;63419;42.262;12.210;2023-09-30T02:12:47;97921.53;;;17.87;nan
74868;BME280;63419;42.262;12.210;2023-09-30T02:15:13;97921.69;;;17.96;nan
74868;BME280;63419;42.262;12.210;2023-09-30T02:17:40;97923.25;;;17.67;nan
74868;BME280;63419;42.262;12.210;2023-09-30T02:20:11;97927.53;;;17.38;nan
74868;BME280;63419;42.262;12.210;2023-09-30T02:22:42;97936.66;;;17.53;nan
74868;BME280;63419;42.262;12.210;2023-09-30T02:25:09;97940.81;;;18.06;nan
74868;BME280;63419;42.262;12.210;2023-09-30T02:27:35;97938.59;;;18.01;nan
74868;BME280;63419;42.262;12.210;2023-09-30T02:30:01;97942.31;;;17.58;nan
74868;BME280;63419;42.262;12.210;2023-09-30T02:32:27;97940.50;;;17.59;nan
74868;BME280;63419;42.262;12.210;2023-09-30T02:34:53;97936.78;;;17.51;nan
74868;BME280;63419;42.262;12.210;2023-09-30T02:37:19;97936.88;;;17.40;nan
74868;BME280;63419;42.262;12.210;2023-09-30T02:39:46;97934.41;;;17.39;nan
74868;BME280;63419;42.262;12.210;2023-09-30T02:42:11;97944.66;;;17.61;nan
74868;BME280;63419;42.262;12.210;2023-09-30T02:44:37;97939.44;;;17.61;nan
74868;BME280;63419;42.262;12.210;2023-09-30T02:47:03;97933.66;;;17.58;nan
74868;BME280;63419;42.262;12.210;2023-09-30T02:49:33;97934.66;;;17.36;nan
74868;BME280;63419;42.262;12.210;2023-09-30T02:51:59;97931.91;;;17.27;nan
74868;BME280;63419;42.262;12.210;2023-09-30T02:54:24;97934.41;;;16.87;nan
74868;BME280;63419;42.262;12.210;2023-09-30T02:56:50;97931.84;;;16.75;nan
74868;BME280;63419;42.262;12.210;2023-09-30T02:59:17;97933.28;;;16.15;nan
74868;BME280;63419;42.262;12.210;2023-09-30T03:01:44;97930.69;;;16.36;nan
74868;BME280;63419;42.262;12.210;2023-09-30T03:04:10;97927.16;;;16.37;nan
74868;BME280;63419;42.262;12.210;2023-09-30T03:06:38;97933.84;;;16.51;nan
74868;BME280;63419;42.262;12.210;2023-09-30T03:09:05;97916.59;;;16.17;nan
74868;BME280;63419;42.262;12.210;2023-09-30T03:11:31;97919.56;;;16.45;nan
74868;BME280;63419;42.262;12.210;2023-09-30T03:13:58;97919.72;;;16.86;nan
74868;BME280;63419;42.262;12.210;2023-09-30T03:16:24;97916.63;;;16.81;nan
74868;BME280;63419;42.262;12.210;2023-09-30T03:18:51;97921.53;;;16.95;nan
74868;BME280;63419;42.262;12.210;2023-09-30T03:21:17;97923.41;;;17.04;nan
74868;BME280;63419;42.262;12.210;2023-09-30T03:23:43;97918.69;;;16.98;nan
74868;BME280;63419;42.262;12.210;2023-09-30T03:26:09;97919.44;;;16.68;nan
74868;BME280;63419;42.262;12.210;2023-09-30T03:28:38;97917.34;;;16.83;nan
74868;BME280;63419;42.262;12.210;2023-09-30T03:31:05;97914.78;;;16.71;nan
74868;BME280;63419;42.262;12.210;2023-09-30T03:33:32;97915.63;;;16.72;nan
74868;BME280;63419;42.262;12.210;2023-09-30T03:35:58;97918.78;;;16.87;nan
74868;BME280;63419;42.262;12.210;2023-09-30T03:38:25;97923.63;;;16.59;nan
74868;BME280;63419;42.262;12.210;2023-09-30T03:40:51;97924.31;;;16.82;nan
74868;BME280;63419;42.262;12.210;2023-09-30T03:43:21;97927.31;;;16.56;nan
74868;BME280;63419;42.262;12.210;2023-09-30T03:45:47;97912.88;;;16.85;nan
74868;BME280;63419;42.262;12.210;2023-09-30T03:48:13;97913.91;;;17.03;nan
74868;BME280;63419;42.262;12.210;2023-09-30T03:50:38;97914.38;;;16.87;nan
74868;BME280;63419;42.262;12.210;2023-09-30T03:53:07;97921.16;;;16.79;nan
74868;BME280;63419;42.262;12.210;2023-09-30T03:55:33;97916.03;;;16.88;nan
74868;BME280;63419;42.262;12.210;2023-09-30T03:58:00;97918.00;;;16.96;nan
74868;BME280;63419;42.262;12.210;2023-09-30T04:00:26;97924.44;;;16.81;nan
74868;BME280;63419;42.262;12.210;2023-09-30T04:02:52;97918.19;;;17.04;nan
74868;BME280;63419;42.262;12.210;2023-09-30T04:05:25;97928.34;;;16.65;nan
74868;BME280;63419;42.262;12.210;2023-09-30T04:07:56;97932.66;;;16.76;nan
74868;BME280;63419;42.262;12.210;2023-09-30T04:10:22;97930.78;;;16.99;nan
74868;BME280;63419;42.262;12.210;2023-09-30T04:12:49;97925.16;;;17.04;nan
74868;BME280;63419;42.262;12.210;2023-09-30T04:15:15;97928.22;;;17.09;nan
74868;BME280;63419;42.262;12.210;2023-09-30T04:17:41;97929.75;;;17.11;nan
74868;BME280;63419;42.262;12.210;2023-09-30T04:20:08;97929.88;;;17.10;nan
74868;BME280;63419;42.262;12.210;2023-09-30T04:22:44;97926.88;;;17.15;nan
74868;BME280;63419;42.262;12.210;2023-09-30T04:25:15;97929.06;;;17.09;nan
74868;BME280;63419;42.262;12.210;2023-09-30T04:27:43;97930.69;;;17.10;nan
74868;BME280;63419;42.262;12.210;2023-09-30T04:30:10;97929.53;;;16.93;nan
74868;BME280;63419;42.262;12.210;2023-09-30T04:32:40;97938.63;;;17.09;nan
74868;BME280;63419;42.262;12.210;2023-09-30T04:35:06;97935.59;;;16.83;nan
74868;BME280;63419;42.262;12.210;2023-09-30T04:37:36;97941.97;;;16.36;nan
74868;BME280;63419;42.262;12.210;2023-09-30T04:40:09;97936.69;;;16.48;nan
74868;BME280;63419;42.262;12.210;2023-09-30T04:42:44;97935.09;;;16.35;nan
74868;BME280;63419;42.262;12.210;2023-09-30T04:45:11;97941.78;;;16.49;nan
74868;BME280;63419;42.262;12.210;2023-09-30T04:47:37;97947.56;;;16.53;nan
74868;BME280;63419;42.262;12.210;2023-09-30T04:50:07;97950.88;;;16.55;nan
74868;BME280;63419;42.262;12.210;2023-09-30T04:52:34;97943.38;;;16.41;nan
74868;BME280;63419;42.262;12.210;2023-09-30T04:55:01;97954.25;;;16.34;nan
74868;BME280;63419;42.262;12.210;2023-09-30T04:57:27;97944.00;;;16.33;nan
74868;BME280;63419;42.262;12.210;2023-09-30T04:59:53;97949.50;;;16.40;nan
74868;BME280;63419;42.262;12.210;2023-09-30T05:02:28;97951.63;;;16.46;nan
74868;BME280;63419;42.262;12.210;2023-09-30T05:04:53;97953.09;;;16.39;nan
74868;BME280;63419;42.262;12.210;2023-09-30T05:07:20;97954.25;;;16.34;nan
74868;BME280;63419;42.262;12.210;2023-09-30T05:09:49;97949.59;;;16.49;nan
74868;BME280;63419;42.262;12.210;2023-09-30T05:12:15;97956.34;;;16.52;nan
74868;BME280;63419;42.262;12.210;2023-09-30T05:14:42;97959.63;;;16.54;nan
74868;BME280;63419;42.262;12.210;2023-09-30T05:17:09;97954.69;;;16.51;nan
74868;BME280;63419;42.262;12.210;2023-09-30T05:19:34;97963.22;;;16.53;nan
74868;BME280;63419;42.262;12.210;2023-09-30T05:22:20;97957.31;;;16.40;nan
74868;BME280;63419;42.262;12.210;2023-09-30T05:24:53;97955.81;;;16.37;nan
74868;BME280;63419;42.262;12.210;2023-09-30T05:27:19;97949.50;;;16.51;nan
74868;BME280;63419;42.262;12.210;2023-09-30T05:29:45;97945.22;;;16.50;nan
74868;BME280;63419;42.262;12.210;2023-09-30T05:32:12;97947.47;;;16.75;nan
74868;BME280;63419;42.262;12.210;2023-09-30T05:34:39;97955.09;;;16.67;nan
74868;BME280;63419;42.262;12.210;2023-09-30T05:37:05;97961.44;;;16.74;nan
74868;BME280;63419;42.262;12.210;2023-09-30T05:39:31;97959.91;;;16.83;nan
74868;BME280;63419;42.262;12.210;2023-09-30T05:41:58;97956.16;;;16.97;nan
74868;BME280;63419;42.262;12.210;2023-09-30T05:44:24;97959.22;;;17.02;nan
74868;BME280;63419;42.262;12.210;2023-09-30T05:46:53;97959.56;;;17.19;nan
74868;BME280;63419;42.262;12.210;2023-09-30T05:49:20;97956.88;;;17.30;nan
74868;BME280;63419;42.262;12.210;2023-09-30T05:51:46;97961.59;;;17.36;nan
74868;BME280;63419;42.262;12.210;2023-09-30T05:54:14;97958.34;;;17.54;nan
74868;BME280;63419;42.262;12.210;2023-09-30T05:56:40;97952.56;;;17.50;nan
74868;BME280;63419;42.262;12.210;2023-09-30T06:00:01;97950.94;;;17.59;nan
74868;BME280;63419;42.262;12.210;2023-09-30T06:02:32;97956.72;;;17.53;nan
74868;BME280;63419;42.262;12.210;2023-09-30T06:04:58;97955.38;;;17.68;nan
74868;BME280;63419;42.262;12.210;2023-09-30T06:07:24;97949.09;;;17.80;nan
74868;BME280;63419;42.262;12.210;2023-09-30T06:09:49;97953.28;;;17.93;nan
74868;BME280;63419;42.262;12.210;2023-09-30T06:12:15;97956.06;;;18.01;nan
74868;BME280;63419;42.262;12.210;2023-09-30T06:14:41;97954.53;;;17.98;nan
74868;BME280;63419;42.262;12.210;2023-09-30T06:17:07;97951.28;;;17.75;nan
74868;BME280;63419;42.262;12.210;2023-09-30T06:19:34;97960.16;;;17.94;nan
74868;BME280;63419;42.262;12.210;2023-09-30T06:22:00;97961.81;;;17.95;nan
74868;BME280;63419;42.262;12.210;2023-09-30T06:24:26;97961.03;;;18.14;nan
74868;BME280;63419;42.262;12.210;2023-09-30T06:26:52;97963.94;;;18.30;nan
74868;BME280;63419;42.262;12.210;2023-09-30T06:29:18;97969.41;;;18.17;nan
74868;BME280;63419;42.262;12.210;2023-09-30T06:31:45;97964.06;;;18.48;nan
74868;BME280;63419;42.262;12.210;2023-09-30T06:34:11;97967.38;;;18.70;nan
74868;BME280;63419;42.262;12.210;2023-09-30T06:36:37;97955.97;;;18.90;nan
74868;BME280;63419;42.262;12.210;2023-09-30T06:39:07;97962.25;;;19.07;nan
74868;BME280;63419;42.262;12.210;2023-09-30T06:41:33;97973.75;;;19.34;nan
74868;BME280;63419;42.262;12.210;2023-09-30T06:43:59;97956.69;;;19.67;nan
74868;BME280;63419;42.262;12.210;2023-09-30T06:46:26;97968.66;;;19.80;nan
74868;BME280;63419;42.262;12.210;2023-09-30T06:48:52;97965.00;;;19.63;nan
74868;BME280;63419;42.262;12.210;2023-09-30T06:51:18;97962.22;;;19.64;nan
74868;BME280;63419;42.262;12.210;2023-09-30T06:53:44;97963.69;;;19.76;nan
74868;BME280;63419;42.262;12.210;2023-09-30T06:56:11;97963.47;;;19.97;nan
74868;BME280;63419;42.262;12.210;2023-09-30T06:58:39;97969.38;;;19.62;nan
74868;BME280;63419;42.262;12.210;2023-09-30T07:01:04;97959.59;;;19.64;nan
74868;BME280;63419;42.262;12.210;2023-09-30T07:03:30;97973.53;;;19.65;nan
74868;BME280;63419;42.262;12.210;2023-09-30T07:05:58;97967.69;;;19.71;nan
74868;BME280;63419;42.262;12.210;2023-09-30T07:08:29;97973.75;;;19.71;nan
74868;BME280;63419;42.262;12.210;2023-09-30T07:10:55;97983.19;;;19.92;nan
74868;BME280;63419;42.262;12.210;2023-09-30T07:13:22;97983.75;;;19.58;nan
74868;BME280;63419;42.262;12.210;2023-09-30T07:15:48;97985.75;;;19.64;nan
74868;BME280;63419;42.262;12.210;2023-09-30T07:18:14;97997.59;;;19.31;nan
74868;BME280;63419;42.262;12.210;2023-09-30T07:20:39;97985.88;;;20.28;nan
74868;BME280;63419;42.262;12.210;2023-09-30T07:23:05;98003.38;;;19.82;nan
74868;BME280;63419;42.262;12.210;2023-09-30T07:25:32;98003.81;;;19.67;nan
74868;BME280;63419;42.262;12.210;2023-09-30T07:27:58;98006.09;;;19.90;nan
74868;BME280;63419;42.262;12.210;2023-09-30T07:30:27;98007.16;;;19.97;nan
74868;BME280;63419;42.262;12.210;2023-09-30T07:32:53;98018.75;;;19.94;nan
74868;BME280;63419;42.262;12.210;2023-09-30T07:35:19;98012.34;;;20.07;nan
74868;BME280;63419;42.262;12.210;2023-09-30T07:37:45;98010.84;;;20.50;nan
74868;BME280;63419;42.262;12.210;2023-09-30T07:40:12;98014.28;;;20.50;nan
74868;BME280;63419;42.262;12.210;2023-09-30T07:42:38;98019.16;;;20.45;nan
74868;BME280;63419;42.262;12.210;2023-09-30T07:45:05;98011.38;;;20.89;nan
74868;BME280;63419;42.262;12.210;2023-09-30T07:47:31;98021.66;;;20.65;nan
74868;BME280;63419;42.262;12.210;2023-09-30T07:50:00;98014.16;;;21.58;nan
74868;BME280;63419;42.262;12.210;2023-09-30T07:52:31;98011.06;;;21.89;nan
74868;BME280;63419;42.262;12.210;2023-09-30T07:54:57;98011.06;;;22.40;nan
74868;BME280;63419;42.262;12.210;2023-09-30T07:57:23;98002.00;;;22.34;nan
74868;BME280;63419;42.262;12.210;2023-09-30T07:59:49;98009.28;;;22.65;nan
74868;BME280;63419;42.262;12.210;2023-09-30T08:02:15;98007.00;;;22.70;nan
74868;BME280;63419;42.262;12.210;2023-09-30T08:04:40;98011.91;;;22.57;nan
74868;BME280;63419;42.262;12.210;2023-09-30T08:07:06;98009.81;;;23.18;nan
74868;BME280;63419;42.262;12.210;2023-09-30T08:09:32;98012.56;;;23.33;nan
74868;BME280;63419;42.262;12.210;2023-09-30T08:11:58;97999.78;;;23.77;nan
74868;BME280;63419;42.262;12.210;2023-09-30T08:14:24;98007.47;;;23.48;nan
74868;BME280;63419;42.262;12.210;2023-09-30T08:16:50;98001.97;;;23.66;nan
74868;BME280;63419;42.262;12.210;2023-09-30T08:19:15;98003.91;;;23.72;nan
74868;BME280;63419;42.262;12.210;2023-09-30T08:21:41;98003.22;;;23.86;nan
74868;BME280;63419;42.262;12.210;2023-09-30T08:24:08;97989.78;;;24.44;nan
74868;BME280;63419;42.262;12.210;2023-09-30T08:26:34;97997.94;;;24.26;nan
74868;BME280;63419;42.262;12.210;2023-09-30T08:29:01;98004.09;;;23.70;nan
74868;BME280;63419;42.262;12.210;2023-09-30T08:31:28;97997.91;;;24.34;nan
74868;BME280;63419;42.262;12.210;2023-09-30T08:33:53;97984.13;;;24.93;nan
74868;BME280;63419;42.262;12.210;2023-09-30T08:36:19;97994.31;;;24.58;nan
74868;BME280;63419;42.262;12.210;2023-09-30T08:38:45;97992.63;;;24.65;nan
74868;BME280;63419;42.262;12.210;2023-09-30T08:41:32;97978.97;;;25.53;nan
74868;BME280;63419;42.262;12.210;2023-09-30T08:44:03;97974.66;;;25.67;nan
74868;BME280;63419;42.262;12.210;2023-09-30T08:46:34;97977.75;;;25.85;nan
74868;BME280;63419;42.262;12.210;2023-09-30T08:49:05;97972.09;;;25.88;nan
74868;BME280;63419;42.262;12.210;2023-09-30T08:51:36;97973.09;;;26.02;nan
74868;BME280;63419;42.262;12.210;2023-09-30T08:54:02;97978.59;;;25.56;nan
74868;BME280;63419;42.262;12.210;2023-09-30T08:56:31;97966.91;;;26.31;nan
74868;BME280;63419;42.262;12.210;2023-09-30T08:59:02;97985.22;;;25.67;nan
74868;BME280;63419;42.262;12.210;2023-09-30T09:01:30;97978.56;;;25.86;nan
74868;BME280;63419;42.262;12.210;2023-09-30T09:03:57;97971.00;;;26.55;nan
74868;BME280;63419;42.262;12.210;2023-09-30T09:06:25;97975.22;;;26.93;nan
74868;BME280;63419;42.262;12.210;2023-09-30T09:08:51;97983.53;;;26.25;nan
74868;BME280;63419;42.262;12.210;2023-09-30T09:11:18;97970.56;;;26.67;nan
74868;BME280;63419;42.262;12.210;2023-09-30T09:13:54;97965.72;;;26.77;nan
74868;BME280;63419;42.262;12.210;2023-09-30T09:16:24;97949.13;;;27.18;nan
74868;BME280;63419;42.262;12.210;2023-09-30T09:18:51;97947.09;;;27.48;nan
74868;BME280;63419;42.262;12.210;2023-09-30T09:21:21;97933.66;;;27.98;nan
74868;BME280;63419;42.262;12.210;2023-09-30T09:23:54;97931.13;;;28.52;nan
74868;BME280;63419;42.262;12.210;2023-09-30T09:26:28;97933.56;;;28.46;nan
74868;BME280;63419;42.262;12.210;2023-09-30T09:29:04;97932.31;;;28.36;nan
74868;BME280;63419;42.262;12.210;2023-09-30T09:31:36;97926.25;;;28.62;nan
74868;BME280;63419;42.262;12.210;2023-09-30T09:34:04;97940.22;;;27.54;nan
74868;BME280;63419;42.262;12.210;2023-09-30T09:39:07;97918.28;;;28.75;nan
74868;BME280;63419;42.262;12.210;2023-09-30T09:41:33;97914.56;;;29.30;nan
74868;BME280;63419;42.262;12.210;2023-09-30T09:44:15;97920.94;;;28.82;nan
74868;BME280;63419;42.262;12.210;2023-09-30T09:46:43;97913.09;;;29.47;nan
74868;BME280;63419;42.262;12.210;2023-09-30T09:49:11;97913.53;;;29.31;nan
74868;BME280;63419;42.262;12.210;2023-09-30T09:51:38;97910.34;;;29.67;nan
74868;BME280;63419;42.262;12.210;2023-09-30T09:54:06;97901.84;;;30.29;nan
74868;BME280;63419;42.262;12.210;2023-09-30T09:56:36;97895.97;;;30.20;nan
74868;BME280;63419;42.262;12.210;2023-09-30T09:59:04;97894.03;;;30.02;nan
74868;BME280;63419;42.262;12.210;2023-09-30T10:01:33;97889.78;;;30.77;nan
74868;BME280;63419;42.262;12.210;2023-09-30T10:04:05;97897.34;;;30.29;nan
74868;BME280;63419;42.262;12.210;2023-09-30T10:06:34;97935.00;;;28.42;nan
74868;BME280;63419;42.262;12.210;2023-09-30T10:09:10;97905.78;;;30.19;nan
74868;BME280;63419;42.262;12.210;2023-09-30T10:11:38;97895.88;;;30.84;nan
74868;BME280;63419;42.262;12.210;2023-09-30T10:14:05;97902.63;;;31.11;nan
74868;BME280;63419;42.262;12.210;2023-09-30T10:19:12;97894.84;;;31.47;nan
74868;BME280;63419;42.262;12.210;2023-09-30T10:21:39;97879.59;;;32.69;nan
74868;BME280;63419;42.262;12.210;2023-09-30T10:35:42;97861.97;;;32.91;nan
74868;BME280;63419;42.262;12.210;2023-09-30T10:40:54;97885.59;;;31.49;nan
74868;BME280;63419;42.262;12.210;2023-09-30T10:43:32;97880.47;;;31.66;nan
74868;BME280;63419;42.262;12.210;2023-09-30T10:46:00;97908.66;;;30.50;nan
74868;BME280;63419;42.262;12.210;2023-09-30T10:50:59;97847.84;;;33.60;nan
74868;BME280;63419;42.262;12.210;2023-09-30T10:53:29;97864.25;;;32.52;nan
74868;BME280;63419;42.262;12.210;2023-09-30T10:56:00;97873.16;;;32.34;nan
74868;BME280;63419;42.262;12.210;2023-09-30T10:58:51;97859.97;;;33.51;nan
74868;BME280;63419;42.262;12.210;2023-09-30T11:01:22;97856.19;;;33.35;nan
74868;BME280;63419;42.262;12.210;2023-09-30T11:03:53;97840.41;;;34.20;nan
74868;BME280;63419;42.262;12.210;2023-09-30T11:06:23;97836.22;;;33.95;nan
74868;BME280;63419;42.262;12.210;2023-09-30T11:08:57;97841.00;;;33.93;nan
74868;BME280;63419;42.262;12.210;2023-09-30T11:11:42;97832.91;;;34.56;nan
74868;BME280;63419;42.262;12.210;2023-09-30T11:14:21;97801.44;;;36.86;nan
74868;BME280;63419;42.262;12.210;2023-09-30T11:16:50;97794.19;;;37.55;nan
74868;BME280;63419;42.262;12.210;2023-09-30T11:19:18;97778.06;;;38.37;nan
74868;BME280;63419;42.262;12.210;2023-09-30T11:21:49;97776.16;;;38.47;nan
74868;BME280;63419;42.262;12.210;2023-09-30T11:24:16;97771.53;;;38.74;nan
74868;BME280;63419;42.262;12.210;2023-09-30T11:26:44;97757.72;;;39.40;nan
74868;BME280;63419;42.262;12.210;2023-09-30T11:29:16;97746.13;;;39.79;nan
74868;BME280;63419;42.262;12.210;2023-09-30T11:31:45;97784.34;;;37.12;nan
74868;BME280;63419;42.262;12.210;2023-09-30T11:34:16;97762.41;;;38.54;nan
74868;BME280;63419;42.262;12.210;2023-09-30T11:36:54;97754.94;;;39.11;nan
74868;BME280;63419;42.262;12.210;2023-09-30T11:39:30;97747.50;;;39.77;nan
74868;BME280;63419;42.262;12.210;2023-09-30T11:41:57;97725.50;;;40.96;nan
74868;BME280;63419;42.262;12.210;2023-09-30T11:44:25;97721.91;;;40.81;nan
74868;BME280;63419;42.262;12.210;2023-09-30T11:47:00;97736.44;;;40.37;nan
74868;BME280;63419;42.262;12.210;2023-09-30T11:49:53;97720.38;;;41.13;nan
74868;BME280;63419;42.262;12.210;2023-09-30T11:52:27;97744.31;;;40.04;nan
74868;BME280;63419;42.262;12.210;2023-09-30T11:54:53;97722.25;;;41.13;nan
74868;BME280;63419;42.262;12.210;2023-09-30T11:57:19;97739.00;;;40.23;nan
74868;BME280;63419;42.262;12.210;2023-09-30T11:59:46;97720.28;;;41.23;nan
74868;BME280;63419;42.262;12.210;2023-09-30T12:02:13;97725.03;;;40.64;nan
74868;BME280;63419;42.262;12.210;2023-09-30T12:04:48;97740.69;;;39.85;nan
74868;BME280;63419;42.262;12.210;2023-09-30T12:07:14;97729.03;;;40.72;nan
74868;BME280;63419;42.262;12.210;2023-09-30T12:09:40;97691.63;;;42.85;nan
74868;BME280;63419;42.262;12.210;2023-09-30T12:12:07;97733.84;;;39.97;nan
74868;BME280;63419;42.262;12.210;2023-09-30T12:14:35;97748.72;;;38.25;nan
74868;BME280;63419;42.262;12.210;2023-09-30T12:17:01;97805.66;;;35.20;nan
74868;BME280;63419;42.262;12.210;2023-09-30T12:19:27;97749.78;;;38.29;nan
74868;BME280;63419;42.262;12.210;2023-09-30T12:21:53;97706.19;;;41.21;nan
74868;BME280;63419;42.262;12.210;2023-09-30T12:24:19;97759.50;;;37.84;nan
74868;BME280;63419;42.262;12.210;2023-09-30T12:26:48;97783.84;;;35.60;nan
74868;BME280;63419;42.262;12.210;2023-09-30T12:29:20;97810.47;;;33.77;nan
74868;BME280;63419;42.262;12.210;2023-09-30T12:31:50;97793.09;;;34.81;nan
74868;BME280;63419;42.262;12.210;2023-09-30T12:34:16;97783.72;;;35.23;nan
74868;BME280;63419;42.262;12.210;2023-09-30T12:36:43;97804.59;;;33.34;nan
74868;BME280;63419;42.262;12.210;2023-09-30T12:39:10;97815.94;;;32.18;nan
74868;BME280;63419;42.262;12.210;2023-09-30T12:41:39;97821.38;;;31.81;nan
74868;BME280;63419;42.262;12.210;2023-09-30T12:44:10;97843.91;;;30.56;nan
74868;BME280;63419;42.262;12.210;2023-09-30T12:46:37;97800.22;;;33.28;nan
74868;BME280;63419;42.262;12.210;2023-09-30T12:49:08;97792.03;;;34.43;nan
74868;BME280;63419;42.262;12.210;2023-09-30T12:51:35;97763.91;;;36.16;nan
74868;BME280;63419;42.262;12.210;2023-09-30T12:54:02;97704.06;;;39.73;nan
74868;BME280;63419;42.262;12.210;2023-09-30T12:56:28;97686.69;;;41.24;nan
74868;BME280;63419;42.262;12.210;2023-09-30T12:58:59;97677.03;;;42.17;nan
74868;BME280;63419;42.262;12.210;2023-09-30T13:01:25;97650.09;;;44.20;nan
74868;BME280;63419;42.262;12.210;2023-09-30T13:03:51;97739.50;;;38.57;nan
74868;BME280;63419;42.262;12.210;2023-09-30T13:06:18;97688.88;;;41.74;nan
74868;BME280;63419;42.262;12.210;2023-09-30T13:08:44;97688.47;;;42.14;nan
74868;BME280;63419;42.262;12.210;2023-09-30T13:11:10;97659.09;;;43.67;nan
74868;BME280;63419;42.262;12.210;2023-09-30T13:13:39;97657.63;;;43.92;nan
74868;BME280;63419;42.262;12.210;2023-09-30T13:16:05;97646.53;;;44.86;nan
74868;BME280;63419;42.262;12.210;2023-09-30T13:18:32;97632.97;;;45.86;nan
74868;BME280;63419;42.262;12.210;2023-09-30T13:20:58;97649.72;;;44.79;nan
74868;BME280;63419;42.262;12.210;2023-09-30T13:23:24;97637.41;;;45.17;nan
74868;BME280;63419;42.262;12.210;2023-09-30T13:25:50;97711.91;;;40.28;nan
74868;BME280;63419;42.262;12.210;2023-09-30T13:28:16;97675.72;;;43.06;nan
74868;BME280;63419;42.262;12.210;2023-09-30T13:30:42;97641.09;;;45.38;nan
74868;BME280;63419;42.262;12.210;2023-09-30T13:33:08;97631.03;;;45.39;nan
74868;BME280;63419;42.262;12.210;2023-09-30T13:35:33;97637.28;;;45.04;nan
74868;BME280;63419;42.262;12.210;2023-09-30T13:38:02;97656.50;;;43.84;nan